sensor_id;sensor_type;location;lat;lon;timestamp;temperature;humidity
39657;DHT22;25337;51.478;7.510;2024-02-14T00:01:05;7.70;99.90
39657;DHT22;25337;51.478;7.510;2024-02-14T00:03:34;7.70;99.90
39657;DHT22;25337;51.478;7.510;2024-02-14T00:06:00;7.70;99.90
39657;DHT22;25337;51.478;7.510;2024-02-14T00:08:25;7.70;99.90
39657;DHT22;25337;51.478;7.510;2024-02-14T00:10:51;7.60;99.90
39657;DHT22;25337;51.478;7.510;2024-02-14T00:13:17;7.60;99.90
39657;DHT22;25337;51.478;7.510;2024-02-14T00:15:45;7.60;99.90
39657;DHT22;25337;51.478;7.510;2024-02-14T00:18:12;7.60;99.90
39657;DHT22;25337;51.478;7.510;2024-02-14T00:20:37;7.60;99.90
39657;DHT22;25337;51.478;7.510;2024-02-14T00:23:04;7.60;99.90
39657;DHT22;25337;51.478;7.510;2024-02-14T00:25:30;7.60;99.90
39657;DHT22;25337;51.478;7.510;2024-02-14T00:27:56;7.70;99.90
39657;DHT22;25337;51.478;7.510;2024-02-14T00:30:21;7.60;99.90
39657;DHT22;25337;51.478;7.510;2024-02-14T00:32:48;7.60;99.90
39657;DHT22;25337;51.478;7.510;2024-02-14T00:35:14;7.60;99.90
39657;DHT22;25337;51.478;7.510;2024-02-14T00:37:39;7.70;99.90
39657;DHT22;25337;51.478;7.510;2024-02-14T00:40:06;7.70;99.90
39657;DHT22;25337;51.478;7.510;2024-02-14T00:42:31;7.60;99.90
39657;DHT22;25337;51.478;7.510;2024-02-14T00:44:57;7.70;99.90
39657;DHT22;25337;51.478;7.510;2024-02-14T00:47:22;7.80;99.90
39657;DHT22;25337;51.478;7.510;2024-02-14T00:49:48;7.90;99.90
39657;DHT22;25337;51.478;7.510;2024-02-14T00:52:14;7.80;99.90
39657;DHT22;25337;51.478;7.510;2024-02-14T00:54:39;7.90;99.90
39657;DHT22;25337;51.478;7.510;2024-02-14T00:57:05;7.90;99.90
39657;DHT22;25337;51.478;7.510;2024-02-14T00:59:31;7.80;99.90
39657;DHT22;25337;51.478;7.510;2024-02-14T01:01:56;7.80;99.90
39657;DHT22;25337;51.478;7.510;2024-02-14T01:04:22;7.70;99.90
39657;DHT22;25337;51.478;7.510;2024-02-14T01:06:47;7.60;99.90
39657;DHT22;25337;51.478;7.510;2024-02-14T01:09:15;7.70;99.90
39657;DHT22;25337;51.478;7.510;2024-02-14T01:11:40;7.60;99.90
39657;DHT22;25337;51.478;7.510;2024-02-14T01:14:06;7.60;99.90
39657;DHT22;25337;51.478;7.510;2024-02-14T01:16:31;7.60;99.90
39657;DHT22;25337;51.478;7.510;2024-02-14T01:18:57;7.70;99.90
39657;DHT22;25337;51.478;7.510;2024-02-14T01:21:23;7.70;99.90
39657;DHT22;25337;51.478;7.510;2024-02-14T01:23:48;7.70;99.90
39657;DHT22;25337;51.478;7.510;2024-02-14T01:26:14;7.60;99.90
39657;DHT22;25337;51.478;7.510;2024-02-14T01:28:39;7.70;99.90
39657;DHT22;25337;51.478;7.510;2024-02-14T01:31:05;7.60;99.90
39657;DHT22;25337;51.478;7.510;2024-02-14T01:33:31;7.50;99.90
39657;DHT22;25337;51.478;7.510;2024-02-14T01:35:57;7.50;99.90
39657;DHT22;25337;51.478;7.510;2024-02-14T01:38:23;7.40;99.90
39657;DHT22;25337;51.478;7.510;2024-02-14T01:40:48;7.40;99.90
39657;DHT22;25337;51.478;7.510;2024-02-14T01:43:14;7.40;99.90
39657;DHT22;25337;51.478;7.510;2024-02-14T01:45:40;7.50;99.90
39657;DHT22;25337;51.478;7.510;2024-02-14T01:48:06;7.50;99.90
39657;DHT22;25337;51.478;7.510;2024-02-14T01:50:34;7.50;99.90
39657;DHT22;25337;51.478;7.510;2024-02-14T01:53:01;7.50;99.90
39657;DHT22;25337;51.478;7.510;2024-02-14T01:55:28;7.50;99.90
39657;DHT22;25337;51.478;7.510;2024-02-14T01:57:54;7.40;99.90
39657;DHT22;25337;51.478;7.510;2024-02-14T02:00:20;7.50;99.90
39657;DHT22;25337;51.478;7.510;2024-02-14T02:02:46;7.50;99.90
39657;DHT22;25337;51.478;7.510;2024-02-14T02:05:15;7.60;99.90
39657;DHT22;25337;51.478;7.510;2024-02-14T02:07:41;7.60;99.90
39657;DHT22;25337;51.478;7.510;2024-02-14T02:10:09;7.60;99.90
39657;DHT22;25337;51.478;7.510;2024-02-14T02:12:36;7.60;99.90
39657;DHT22;25337;51.478;7.510;2024-02-14T02:15:05;7.60;99.90
39657;DHT22;25337;51.478;7.510;2024-02-14T02:17:31;7.60;99.90
39657;DHT22;25337;51.478;7.510;2024-02-14T02:20:00;7.60;99.90
39657;DHT22;25337;51.478;7.510;2024-02-14T02:22:26;7.60;99.90
39657;DHT22;25337;51.478;7.510;2024-02-14T02:24:51;7.60;99.90
39657;DHT22;25337;51.478;7.510;2024-02-14T02:27:18;7.60;99.90
39657;DHT22;25337;51.478;7.510;2024-02-14T02:29:44;7.70;99.90
39657;DHT22;25337;51.478;7.510;2024-02-14T02:32:09;7.70;99.90
39657;DHT22;25337;51.478;7.510;2024-02-14T02:34:35;7.70;99.90
39657;DHT22;25337;51.478;7.510;2024-02-14T02:37:04;7.70;99.90
39657;DHT22;25337;51.478;7.510;2024-02-14T02:39:33;7.80;99.90
39657;DHT22;25337;51.478;7.510;2024-02-14T02:41:59;7.70;99.90
39657;DHT22;25337;51.478;7.510;2024-02-14T02:44:25;7.80;99.90
39657;DHT22;25337;51.478;7.510;2024-02-14T02:46:51;7.70;99.90
39657;DHT22;25337;51.478;7.510;2024-02-14T02:49:16;7.80;99.90
39657;DHT22;25337;51.478;7.510;2024-02-14T02:51:42;7.80;99.90
39657;DHT22;25337;51.478;7.510;2024-02-14T02:54:07;7.90;99.90
39657;DHT22;25337;51.478;7.510;2024-02-14T02:56:34;7.80;99.90
39657;DHT22;25337;51.478;7.510;2024-02-14T02:58:59;7.80;99.90
39657;DHT22;25337;51.478;7.510;2024-02-14T03:01:34;7.80;99.90
39657;DHT22;25337;51.478;7.510;2024-02-14T03:04:00;7.80;99.90
39657;DHT22;25337;51.478;7.510;2024-02-14T03:06:25;7.90;99.90
39657;DHT22;25337;51.478;7.510;2024-02-14T03:08:52;7.90;99.90
39657;DHT22;25337;51.478;7.510;2024-02-14T03:11:19;7.90;99.90
39657;DHT22;25337;51.478;7.510;2024-02-14T03:13:45;7.90;99.90
39657;DHT22;25337;51.478;7.510;2024-02-14T03:16:14;7.90;99.90
39657;DHT22;25337;51.478;7.510;2024-02-14T03:18:40;7.90;99.90
39657;DHT22;25337;51.478;7.510;2024-02-14T03:21:06;7.90;99.90
39657;DHT22;25337;51.478;7.510;2024-02-14T03:23:32;7.90;99.90
39657;DHT22;25337;51.478;7.510;2024-02-14T03:25:57;7.90;99.90
39657;DHT22;25337;51.478;7.510;2024-02-14T03:28:23;7.90;99.90
39657;DHT22;25337;51.478;7.510;2024-02-14T03:30:49;7.90;99.90
39657;DHT22;25337;51.478;7.510;2024-02-14T03:33:14;8.00;99.90
39657;DHT22;25337;51.478;7.510;2024-02-14T03:35:40;7.90;99.90
39657;DHT22;25337;51.478;7.510;2024-02-14T03:38:06;7.90;99.90
39657;DHT22;25337;51.478;7.510;2024-02-14T03:40:34;7.90;99.90
39657;DHT22;25337;51.478;7.510;2024-02-14T03:43:01;7.80;99.90
39657;DHT22;25337;51.478;7.510;2024-02-14T03:45:27;7.80;99.90
39657;DHT22;25337;51.478;7.510;2024-02-14T03:47:55;7.80;99.90
39657;DHT22;25337;51.478;7.510;2024-02-14T03:50:22;7.80;99.90
39657;DHT22;25337;51.478;7.510;2024-02-14T03:52:48;7.70;99.90
39657;DHT22;25337;51.478;7.510;2024-02-14T03:55:14;7.70;99.90
39657;DHT22;25337;51.478;7.510;2024-02-14T03:57:42;7.70;99.90
39657;DHT22;25337;51.478;7.510;2024-02-14T04:00:11;7.70;99.90
39657;DHT22;25337;51.478;7.510;2024-02-14T04:02:37;7.80;99.90
39657;DHT22;25337;51.478;7.510;2024-02-14T04:05:03;7.80;99.90
39657;DHT22;25337;51.478;7.510;2024-02-14T04:07:28;7.80;99.90
39657;DHT22;25337;51.478;7.510;2024-02-14T04:09:55;7.80;99.90
39657;DHT22;25337;51.478;7.510;2024-02-14T04:12:21;7.80;99.90
39657;DHT22;25337;51.478;7.510;2024-02-14T04:14:46;7.80;99.90
39657;DHT22;25337;51.478;7.510;2024-02-14T04:17:12;7.80;99.90
39657;DHT22;25337;51.478;7.510;2024-02-14T04:19:38;7.80;99.90
39657;DHT22;25337;51.478;7.510;2024-02-14T04:22:04;7.90;99.90
39657;DHT22;25337;51.478;7.510;2024-02-14T04:24:29;7.90;99.90
39657;DHT22;25337;51.478;7.510;2024-02-14T04:26:55;7.90;99.90
39657;DHT22;25337;51.478;7.510;2024-02-14T04:29:22;7.80;99.90
39657;DHT22;25337;51.478;7.510;2024-02-14T04:31:48;7.80;99.90
39657;DHT22;25337;51.478;7.510;2024-02-14T04:34:14;7.80;99.90
39657;DHT22;25337;51.478;7.510;2024-02-14T04:36:40;7.80;99.90
39657;DHT22;25337;51.478;7.510;2024-02-14T04:39:06;7.80;99.90
39657;DHT22;25337;51.478;7.510;2024-02-14T04:41:32;7.90;99.90
39657;DHT22;25337;51.478;7.510;2024-02-14T04:44:05;7.90;99.90
39657;DHT22;25337;51.478;7.510;2024-02-14T04:46:34;8.00;99.90
39657;DHT22;25337;51.478;7.510;2024-02-14T04:49:01;7.90;99.90
39657;DHT22;25337;51.478;7.510;2024-02-14T04:51:30;8.10;99.90
39657;DHT22;25337;51.478;7.510;2024-02-14T04:53:57;8.10;99.90
39657;DHT22;25337;51.478;7.510;2024-02-14T04:56:26;8.10;99.90
39657;DHT22;25337;51.478;7.510;2024-02-14T04:58:53;8.10;99.90
39657;DHT22;25337;51.478;7.510;2024-02-14T05:01:20;8.10;99.90
39657;DHT22;25337;51.478;7.510;2024-02-14T05:03:46;8.10;99.90
39657;DHT22;25337;51.478;7.510;2024-02-14T05:06:11;8.20;99.90
39657;DHT22;25337;51.478;7.510;2024-02-14T05:08:37;8.10;99.90
39657;DHT22;25337;51.478;7.510;2024-02-14T05:11:02;8.00;99.90
39657;DHT22;25337;51.478;7.510;2024-02-14T05:13:30;8.00;99.90
39657;DHT22;25337;51.478;7.510;2024-02-14T05:15:55;7.90;99.90
39657;DHT22;25337;51.478;7.510;2024-02-14T05:18:21;8.00;99.90
39657;DHT22;25337;51.478;7.510;2024-02-14T05:20:47;7.90;99.90
39657;DHT22;25337;51.478;7.510;2024-02-14T05:23:12;7.90;99.90
39657;DHT22;25337;51.478;7.510;2024-02-14T05:25:38;7.90;99.90
39657;DHT22;25337;51.478;7.510;2024-02-14T05:28:05;7.90;99.90
39657;DHT22;25337;51.478;7.510;2024-02-14T05:30:30;7.90;99.90
39657;DHT22;25337;51.478;7.510;2024-02-14T05:32:57;8.00;99.90
39657;DHT22;25337;51.478;7.510;2024-02-14T05:35:22;8.00;99.90
39657;DHT22;25337;51.478;7.510;2024-02-14T05:37:49;8.00;99.90
39657;DHT22;25337;51.478;7.510;2024-02-14T05:40:15;8.00;99.90
39657;DHT22;25337;51.478;7.510;2024-02-14T05:42:41;8.10;99.90
39657;DHT22;25337;51.478;7.510;2024-02-14T05:45:07;8.00;99.90
39657;DHT22;25337;51.478;7.510;2024-02-14T05:47:35;8.10;99.90
39657;DHT22;25337;51.478;7.510;2024-02-14T05:50:01;8.10;99.90
39657;DHT22;25337;51.478;7.510;2024-02-14T05:52:27;8.10;99.90
39657;DHT22;25337;51.478;7.510;2024-02-14T05:54:52;8.10;99.90
39657;DHT22;25337;51.478;7.510;2024-02-14T05:57:19;8.10;99.90
39657;DHT22;25337;51.478;7.510;2024-02-14T05:59:45;8.10;99.90
39657;DHT22;25337;51.478;7.510;2024-02-14T06:02:10;8.00;99.90
39657;DHT22;25337;51.478;7.510;2024-02-14T06:04:36;8.10;99.90
39657;DHT22;25337;51.478;7.510;2024-02-14T06:07:01;8.00;99.90
39657;DHT22;25337;51.478;7.510;2024-02-14T06:09:28;8.00;99.90
39657;DHT22;25337;51.478;7.510;2024-02-14T06:11:54;8.00;99.90
39657;DHT22;25337;51.478;7.510;2024-02-14T06:14:20;8.00;99.90
39657;DHT22;25337;51.478;7.510;2024-02-14T06:16:46;8.00;99.90
39657;DHT22;25337;51.478;7.510;2024-02-14T06:19:11;8.10;99.90
39657;DHT22;25337;51.478;7.510;2024-02-14T06:21:39;8.10;99.90
39657;DHT22;25337;51.478;7.510;2024-02-14T06:24:04;8.10;99.90
39657;DHT22;25337;51.478;7.510;2024-02-14T06:26:31;8.10;99.90
39657;DHT22;25337;51.478;7.510;2024-02-14T06:28:58;8.00;99.90
39657;DHT22;25337;51.478;7.510;2024-02-14T06:31:24;8.10;99.90
39657;DHT22;25337;51.478;7.510;2024-02-14T06:33:50;8.00;99.90
39657;DHT22;25337;51.478;7.510;2024-02-14T06:36:16;8.00;99.90
39657;DHT22;25337;51.478;7.510;2024-02-14T06:38:41;8.00;99.90
39657;DHT22;25337;51.478;7.510;2024-02-14T06:41:07;8.00;99.90
39657;DHT22;25337;51.478;7.510;2024-02-14T06:43:33;8.00;99.90
39657;DHT22;25337;51.478;7.510;2024-02-14T06:45:58;8.20;99.90
39657;DHT22;25337;51.478;7.510;2024-02-14T06:48:24;8.10;99.90
39657;DHT22;25337;51.478;7.510;2024-02-14T06:50:52;8.10;99.90
39657;DHT22;25337;51.478;7.510;2024-02-14T06:53:18;8.10;99.90
39657;DHT22;25337;51.478;7.510;2024-02-14T06:55:44;8.20;99.90
39657;DHT22;25337;51.478;7.510;2024-02-14T06:58:09;8.20;99.90
39657;DHT22;25337;51.478;7.510;2024-02-14T07:00:35;8.10;99.90
39657;DHT22;25337;51.478;7.510;2024-02-14T07:03:01;8.20;99.90
39657;DHT22;25337;51.478;7.510;2024-02-14T07:05:27;8.30;99.90
39657;DHT22;25337;51.478;7.510;2024-02-14T07:07:54;8.20;99.90
39657;DHT22;25337;51.478;7.510;2024-02-14T07:10:20;8.20;99.90
39657;DHT22;25337;51.478;7.510;2024-02-14T07:12:46;8.20;99.90
39657;DHT22;25337;51.478;7.510;2024-02-14T07:15:11;8.20;99.90
39657;DHT22;25337;51.478;7.510;2024-02-14T07:17:37;8.20;99.90
39657;DHT22;25337;51.478;7.510;2024-02-14T07:20:04;8.30;99.90
39657;DHT22;25337;51.478;7.510;2024-02-14T07:22:30;8.20;99.90
39657;DHT22;25337;51.478;7.510;2024-02-14T07:24:56;8.30;99.90
39657;DHT22;25337;51.478;7.510;2024-02-14T07:27:22;8.30;99.90
39657;DHT22;25337;51.478;7.510;2024-02-14T07:29:49;8.20;99.90
39657;DHT22;25337;51.478;7.510;2024-02-14T07:32:14;8.30;99.90
39657;DHT22;25337;51.478;7.510;2024-02-14T07:34:40;8.40;99.90
39657;DHT22;25337;51.478;7.510;2024-02-14T07:37:06;8.40;99.90
39657;DHT22;25337;51.478;7.510;2024-02-14T07:39:32;8.40;99.90
39657;DHT22;25337;51.478;7.510;2024-02-14T07:42:02;8.40;99.90
39657;DHT22;25337;51.478;7.510;2024-02-14T07:44:28;8.40;99.90
39657;DHT22;25337;51.478;7.510;2024-02-14T07:46:54;8.40;99.90
39657;DHT22;25337;51.478;7.510;2024-02-14T07:49:20;8.50;99.90
39657;DHT22;25337;51.478;7.510;2024-02-14T07:51:46;8.50;99.90
39657;DHT22;25337;51.478;7.510;2024-02-14T07:54:11;8.50;99.90
39657;DHT22;25337;51.478;7.510;2024-02-14T07:56:37;8.50;99.90
39657;DHT22;25337;51.478;7.510;2024-02-14T07:59:03;8.40;99.90
39657;DHT22;25337;51.478;7.510;2024-02-14T08:01:30;8.40;99.90
39657;DHT22;25337;51.478;7.510;2024-02-14T08:03:56;8.50;99.90
39657;DHT22;25337;51.478;7.510;2024-02-14T08:06:22;8.50;99.90
39657;DHT22;25337;51.478;7.510;2024-02-14T08:08:47;8.50;99.90
39657;DHT22;25337;51.478;7.510;2024-02-14T08:11:19;8.50;99.90
39657;DHT22;25337;51.478;7.510;2024-02-14T08:13:45;8.50;99.90
39657;DHT22;25337;51.478;7.510;2024-02-14T08:16:11;8.60;99.90
39657;DHT22;25337;51.478;7.510;2024-02-14T08:18:37;8.50;99.90
39657;DHT22;25337;51.478;7.510;2024-02-14T08:21:04;8.50;99.90
39657;DHT22;25337;51.478;7.510;2024-02-14T08:23:31;8.50;99.90
39657;DHT22;25337;51.478;7.510;2024-02-14T08:25:57;8.50;99.90
39657;DHT22;25337;51.478;7.510;2024-02-14T08:28:23;8.60;99.90
39657;DHT22;25337;51.478;7.510;2024-02-14T08:30:48;8.60;99.90
39657;DHT22;25337;51.478;7.510;2024-02-14T08:33:14;8.60;99.90
39657;DHT22;25337;51.478;7.510;2024-02-14T08:35:40;8.60;99.90
39657;DHT22;25337;51.478;7.510;2024-02-14T08:38:05;8.70;99.90
39657;DHT22;25337;51.478;7.510;2024-02-14T08:40:32;8.80;99.90
39657;DHT22;25337;51.478;7.510;2024-02-14T08:42:57;8.80;99.90
39657;DHT22;25337;51.478;7.510;2024-02-14T08:45:24;8.80;99.90
39657;DHT22;25337;51.478;7.510;2024-02-14T08:47:50;8.90;99.90
39657;DHT22;25337;51.478;7.510;2024-02-14T08:50:16;9.00;99.90
39657;DHT22;25337;51.478;7.510;2024-02-14T08:52:42;9.00;99.90
39657;DHT22;25337;51.478;7.510;2024-02-14T08:55:08;9.10;99.90
39657;DHT22;25337;51.478;7.510;2024-02-14T08:57:40;9.20;99.90
39657;DHT22;25337;51.478;7.510;2024-02-14T09:00:06;9.20;99.90
39657;DHT22;25337;51.478;7.510;2024-02-14T09:02:33;9.20;99.90
39657;DHT22;25337;51.478;7.510;2024-02-14T09:05:00;9.20;99.90
39657;DHT22;25337;51.478;7.510;2024-02-14T09:07:26;9.20;99.90
39657;DHT22;25337;51.478;7.510;2024-02-14T09:09:52;9.30;99.90
39657;DHT22;25337;51.478;7.510;2024-02-14T09:12:18;9.30;99.90
39657;DHT22;25337;51.478;7.510;2024-02-14T09:14:43;9.30;99.90
39657;DHT22;25337;51.478;7.510;2024-02-14T09:17:09;9.40;99.90
39657;DHT22;25337;51.478;7.510;2024-02-14T09:19:35;9.50;99.90
39657;DHT22;25337;51.478;7.510;2024-02-14T09:22:02;9.50;99.90
39657;DHT22;25337;51.478;7.510;2024-02-14T09:24:31;9.60;99.90
39657;DHT22;25337;51.478;7.510;2024-02-14T09:26:57;9.70;99.90
39657;DHT22;25337;51.478;7.510;2024-02-14T09:29:23;9.70;99.90
39657;DHT22;25337;51.478;7.510;2024-02-14T09:31:50;9.70;99.90
39657;DHT22;25337;51.478;7.510;2024-02-14T09:34:16;9.70;99.90
39657;DHT22;25337;51.478;7.510;2024-02-14T09:36:44;9.70;99.90
39657;DHT22;25337;51.478;7.510;2024-02-14T09:39:10;9.60;99.90
39657;DHT22;25337;51.478;7.510;2024-02-14T09:41:42;9.70;99.90
39657;DHT22;25337;51.478;7.510;2024-02-14T09:44:09;9.70;99.90
39657;DHT22;25337;51.478;7.510;2024-02-14T09:46:38;9.70;99.90
39657;DHT22;25337;51.478;7.510;2024-02-14T09:49:06;9.90;99.90
39657;DHT22;25337;51.478;7.510;2024-02-14T09:51:31;9.90;99.90
39657;DHT22;25337;51.478;7.510;2024-02-14T09:53:59;9.90;99.90
39657;DHT22;25337;51.478;7.510;2024-02-14T09:56:25;10.00;99.90
39657;DHT22;25337;51.478;7.510;2024-02-14T09:58:53;10.00;99.90
39657;DHT22;25337;51.478;7.510;2024-02-14T10:01:23;9.90;99.90
39657;DHT22;25337;51.478;7.510;2024-02-14T10:03:54;9.90;99.90
39657;DHT22;25337;51.478;7.510;2024-02-14T10:06:20;9.90;99.90
39657;DHT22;25337;51.478;7.510;2024-02-14T10:08:47;9.90;99.90
39657;DHT22;25337;51.478;7.510;2024-02-14T10:11:14;9.80;99.90
39657;DHT22;25337;51.478;7.510;2024-02-14T10:13:47;9.80;99.90
39657;DHT22;25337;51.478;7.510;2024-02-14T10:16:16;9.80;99.90
39657;DHT22;25337;51.478;7.510;2024-02-14T10:18:45;9.70;99.90
39657;DHT22;25337;51.478;7.510;2024-02-14T10:21:15;9.70;99.90
39657;DHT22;25337;51.478;7.510;2024-02-14T10:23:43;9.70;99.90
39657;DHT22;25337;51.478;7.510;2024-02-14T10:26:09;9.70;99.90
39657;DHT22;25337;51.478;7.510;2024-02-14T10:28:35;9.70;99.90
39657;DHT22;25337;51.478;7.510;2024-02-14T10:31:00;9.70;99.90
39657;DHT22;25337;51.478;7.510;2024-02-14T10:33:28;9.80;99.90
39657;DHT22;25337;51.478;7.510;2024-02-14T10:35:55;9.80;99.90
39657;DHT22;25337;51.478;7.510;2024-02-14T10:38:22;9.90;99.90
39657;DHT22;25337;51.478;7.510;2024-02-14T10:40:49;9.90;99.90
39657;DHT22;25337;51.478;7.510;2024-02-14T10:43:16;10.00;99.90
39657;DHT22;25337;51.478;7.510;2024-02-14T10:45:42;10.00;99.90
39657;DHT22;25337;51.478;7.510;2024-02-14T10:48:11;10.00;99.90
39657;DHT22;25337;51.478;7.510;2024-02-14T10:50:41;10.00;99.90
39657;DHT22;25337;51.478;7.510;2024-02-14T10:53:13;10.00;99.90
39657;DHT22;25337;51.478;7.510;2024-02-14T10:55:40;10.00;99.90
39657;DHT22;25337;51.478;7.510;2024-02-14T10:58:10;10.10;99.90
39657;DHT22;25337;51.478;7.510;2024-02-14T11:00:37;10.00;99.90
39657;DHT22;25337;51.478;7.510;2024-02-14T11:03:03;10.10;99.90
39657;DHT22;25337;51.478;7.510;2024-02-14T11:05:29;10.10;99.90
39657;DHT22;25337;51.478;7.510;2024-02-14T11:07:55;10.20;99.90
39657;DHT22;25337;51.478;7.510;2024-02-14T11:10:22;10.30;99.90
39657;DHT22;25337;51.478;7.510;2024-02-14T11:12:49;10.20;99.90
39657;DHT22;25337;51.478;7.510;2024-02-14T11:15:19;10.20;99.90
39657;DHT22;25337;51.478;7.510;2024-02-14T11:17:46;10.10;99.90
39657;DHT22;25337;51.478;7.510;2024-02-14T11:20:21;10.10;99.90
39657;DHT22;25337;51.478;7.510;2024-02-14T11:22:53;10.10;99.90
39657;DHT22;25337;51.478;7.510;2024-02-14T11:25:23;10.20;99.90
39657;DHT22;25337;51.478;7.510;2024-02-14T11:27:50;10.20;99.90
39657;DHT22;25337;51.478;7.510;2024-02-14T11:30:28;10.30;99.90
39657;DHT22;25337;51.478;7.510;2024-02-14T11:32:54;10.40;99.90
39657;DHT22;25337;51.478;7.510;2024-02-14T11:35:19;10.50;99.90
39657;DHT22;25337;51.478;7.510;2024-02-14T11:37:51;10.50;99.90
39657;DHT22;25337;51.478;7.510;2024-02-14T11:40:19;10.50;99.90
39657;DHT22;25337;51.478;7.510;2024-02-14T11:42:46;10.50;99.90
39657;DHT22;25337;51.478;7.510;2024-02-14T11:45:13;10.60;99.90
39657;DHT22;25337;51.478;7.510;2024-02-14T11:47:39;10.60;99.90
39657;DHT22;25337;51.478;7.510;2024-02-14T11:50:05;10.60;99.90
39657;DHT22;25337;51.478;7.510;2024-02-14T11:52:31;10.70;99.90
39657;DHT22;25337;51.478;7.510;2024-02-14T11:54:57;10.80;99.90
39657;DHT22;25337;51.478;7.510;2024-02-14T11:57:26;10.90;99.90
39657;DHT22;25337;51.478;7.510;2024-02-14T11:59:52;10.90;99.90
39657;DHT22;25337;51.478;7.510;2024-02-14T12:02:19;10.90;99.90
39657;DHT22;25337;51.478;7.510;2024-02-14T12:04:47;10.80;99.90
39657;DHT22;25337;51.478;7.510;2024-02-14T12:07:15;10.80;99.90
39657;DHT22;25337;51.478;7.510;2024-02-14T12:09:41;10.70;99.90
39657;DHT22;25337;51.478;7.510;2024-02-14T12:12:07;10.70;99.90
39657;DHT22;25337;51.478;7.510;2024-02-14T12:14:33;10.70;99.90
39657;DHT22;25337;51.478;7.510;2024-02-14T12:17:00;10.60;99.90
39657;DHT22;25337;51.478;7.510;2024-02-14T12:19:28;10.60;99.90
39657;DHT22;25337;51.478;7.510;2024-02-14T12:21:55;10.70;99.90
39657;DHT22;25337;51.478;7.510;2024-02-14T12:24:27;10.70;99.90
39657;DHT22;25337;51.478;7.510;2024-02-14T12:26:54;10.90;99.90
39657;DHT22;25337;51.478;7.510;2024-02-14T12:29:19;11.10;99.90
39657;DHT22;25337;51.478;7.510;2024-02-14T12:31:45;11.30;99.90
39657;DHT22;25337;51.478;7.510;2024-02-14T12:34:12;11.30;99.90
39657;DHT22;25337;51.478;7.510;2024-02-14T12:36:37;11.30;99.90
39657;DHT22;25337;51.478;7.510;2024-02-14T12:39:03;11.30;99.90
39657;DHT22;25337;51.478;7.510;2024-02-14T12:41:30;11.30;99.90
39657;DHT22;25337;51.478;7.510;2024-02-14T12:43:57;11.30;99.90
39657;DHT22;25337;51.478;7.510;2024-02-14T12:46:23;11.30;99.90
39657;DHT22;25337;51.478;7.510;2024-02-14T12:48:49;11.40;99.90
39657;DHT22;25337;51.478;7.510;2024-02-14T12:51:15;11.30;99.90
39657;DHT22;25337;51.478;7.510;2024-02-14T12:53:40;11.30;99.90
39657;DHT22;25337;51.478;7.510;2024-02-14T12:56:07;11.30;99.90
39657;DHT22;25337;51.478;7.510;2024-02-14T12:58:33;11.30;99.90
39657;DHT22;25337;51.478;7.510;2024-02-14T13:00:58;11.30;99.90
39657;DHT22;25337;51.478;7.510;2024-02-14T13:03:27;11.40;99.90
39657;DHT22;25337;51.478;7.510;2024-02-14T13:05:54;11.50;99.90
39657;DHT22;25337;51.478;7.510;2024-02-14T13:08:20;11.50;99.90
39657;DHT22;25337;51.478;7.510;2024-02-14T13:10:46;11.60;99.90
39657;DHT22;25337;51.478;7.510;2024-02-14T13:13:12;11.70;99.90
39657;DHT22;25337;51.478;7.510;2024-02-14T13:15:38;11.80;99.90
39657;DHT22;25337;51.478;7.510;2024-02-14T13:18:03;11.90;99.90
39657;DHT22;25337;51.478;7.510;2024-02-14T13:20:29;11.90;99.90
39657;DHT22;25337;51.478;7.510;2024-02-14T13:22:55;11.80;99.90
39657;DHT22;25337;51.478;7.510;2024-02-14T13:25:21;11.90;99.90
39657;DHT22;25337;51.478;7.510;2024-02-14T13:27:47;11.90;99.90
39657;DHT22;25337;51.478;7.510;2024-02-14T13:30:13;12.00;99.90
39657;DHT22;25337;51.478;7.510;2024-02-14T13:32:38;12.00;99.90
39657;DHT22;25337;51.478;7.510;2024-02-14T13:35:04;11.90;99.90
39657;DHT22;25337;51.478;7.510;2024-02-14T13:37:31;11.90;99.90
39657;DHT22;25337;51.478;7.510;2024-02-14T13:39:57;11.80;99.90
39657;DHT22;25337;51.478;7.510;2024-02-14T13:42:23;11.70;99.90
39657;DHT22;25337;51.478;7.510;2024-02-14T13:44:48;11.60;99.90
39657;DHT22;25337;51.478;7.510;2024-02-14T13:47:17;11.50;99.90
39657;DHT22;25337;51.478;7.510;2024-02-14T13:49:46;11.40;99.90
39657;DHT22;25337;51.478;7.510;2024-02-14T13:52:12;11.30;99.90
39657;DHT22;25337;51.478;7.510;2024-02-14T13:54:38;11.20;99.90
39657;DHT22;25337;51.478;7.510;2024-02-14T13:57:04;11.20;99.90
39657;DHT22;25337;51.478;7.510;2024-02-14T13:59:29;11.20;99.90
39657;DHT22;25337;51.478;7.510;2024-02-14T14:01:55;11.20;99.90
39657;DHT22;25337;51.478;7.510;2024-02-14T14:04:21;11.20;99.90
39657;DHT22;25337;51.478;7.510;2024-02-14T14:06:47;11.20;99.90
39657;DHT22;25337;51.478;7.510;2024-02-14T14:09:14;11.20;99.90
39657;DHT22;25337;51.478;7.510;2024-02-14T14:11:39;11.20;99.90
39657;DHT22;25337;51.478;7.510;2024-02-14T14:14:05;11.20;99.90
39657;DHT22;25337;51.478;7.510;2024-02-14T14:16:31;11.10;99.90
39657;DHT22;25337;51.478;7.510;2024-02-14T14:19:00;11.10;99.90
39657;DHT22;25337;51.478;7.510;2024-02-14T14:21:26;11.00;99.90
39657;DHT22;25337;51.478;7.510;2024-02-14T14:23:51;11.00;99.90
39657;DHT22;25337;51.478;7.510;2024-02-14T14:26:18;11.00;99.90
39657;DHT22;25337;51.478;7.510;2024-02-14T14:28:44;10.90;99.90
39657;DHT22;25337;51.478;7.510;2024-02-14T14:31:09;10.90;99.90
39657;DHT22;25337;51.478;7.510;2024-02-14T14:33:37;10.80;99.90
39657;DHT22;25337;51.478;7.510;2024-02-14T14:36:04;10.80;99.90
39657;DHT22;25337;51.478;7.510;2024-02-14T14:38:30;10.70;99.90
39657;DHT22;25337;51.478;7.510;2024-02-14T14:40:56;10.70;99.90
39657;DHT22;25337;51.478;7.510;2024-02-14T14:43:22;10.70;99.90
39657;DHT22;25337;51.478;7.510;2024-02-14T14:45:48;10.70;99.90
39657;DHT22;25337;51.478;7.510;2024-02-14T14:48:15;10.70;99.90
39657;DHT22;25337;51.478;7.510;2024-02-14T14:50:40;10.70;99.90
39657;DHT22;25337;51.478;7.510;2024-02-14T14:53:07;10.70;99.90
39657;DHT22;25337;51.478;7.510;2024-02-14T14:55:52;10.70;99.90
39657;DHT22;25337;51.478;7.510;2024-02-14T14:58:18;10.70;99.90
39657;DHT22;25337;51.478;7.510;2024-02-14T15:00:44;10.70;99.90
39657;DHT22;25337;51.478;7.510;2024-02-14T15:03:10;10.70;99.90
39657;DHT22;25337;51.478;7.510;2024-02-14T15:05:38;10.80;99.90
39657;DHT22;25337;51.478;7.510;2024-02-14T15:08:05;10.80;99.90
39657;DHT22;25337;51.478;7.510;2024-02-14T15:10:35;10.80;99.90
39657;DHT22;25337;51.478;7.510;2024-02-14T15:13:04;10.80;99.90
39657;DHT22;25337;51.478;7.510;2024-02-14T15:15:32;10.80;99.90
39657;DHT22;25337;51.478;7.510;2024-02-14T15:17:58;10.70;99.90
39657;DHT22;25337;51.478;7.510;2024-02-14T15:20:23;10.70;99.90
39657;DHT22;25337;51.478;7.510;2024-02-14T15:22:49;10.70;99.90
39657;DHT22;25337;51.478;7.510;2024-02-14T15:25:15;10.60;99.90
39657;DHT22;25337;51.478;7.510;2024-02-14T15:27:40;10.60;99.90
39657;DHT22;25337;51.478;7.510;2024-02-14T15:30:10;10.60;99.90
39657;DHT22;25337;51.478;7.510;2024-02-14T15:32:54;10.60;99.90
39657;DHT22;25337;51.478;7.510;2024-02-14T15:35:38;10.50;99.90